sensor_id;sensor_type;location;lat;lon;timestamp;P1;durP1;ratioP1;P2;durP2;ratioP2
32323;SDS011;25666;44.350;9.222;2022-09-23T00:00:33;1.90;;;1.38;;
32323;SDS011;25666;44.350;9.222;2022-09-23T00:02:59;2.90;;;1.48;;
32323;SDS011;25666;44.350;9.222;2022-09-23T00:05:28;5.38;;;1.70;;
32323;SDS011;25666;44.350;9.222;2022-09-23T00:07:55;1.92;;;1.30;;
32323;SDS011;25666;44.350;9.222;2022-09-23T00:10:21;2.03;;;1.40;;
32323;SDS011;25666;44.350;9.222;2022-09-23T00:12:48;2.83;;;1.30;;
32323;SDS011;25666;44.350;9.222;2022-09-23T00:15:14;2.65;;;1.42;;
32323;SDS011;25666;44.350;9.222;2022-09-23T00:17:40;2.10;;;1.40;;
32323;SDS011;25666;44.350;9.222;2022-09-23T00:20:06;3.42;;;1.50;;
32323;SDS011;25666;44.350;9.222;2022-09-23T00:22:33;2.63;;;1.45;;
32323;SDS011;25666;44.350;9.222;2022-09-23T00:25:03;1.70;;;1.33;;
32323;SDS011;25666;44.350;9.222;2022-09-23T00:27:30;3.42;;;1.40;;
32323;SDS011;25666;44.350;9.222;2022-09-23T00:29:55;4.22;;;1.38;;
32323;SDS011;25666;44.350;9.222;2022-09-23T00:32:21;3.67;;;1.50;;
32323;SDS011;25666;44.350;9.222;2022-09-23T00:34:46;1.42;;;1.23;;
32323;SDS011;25666;44.350;9.222;2022-09-23T00:37:12;1.98;;;1.55;;
32323;SDS011;25666;44.350;9.222;2022-09-23T00:39:38;4.40;;;1.40;;
32323;SDS011;25666;44.350;9.222;2022-09-23T00:42:04;1.63;;;1.23;;
32323;SDS011;25666;44.350;9.222;2022-09-23T00:44:44;7.93;;;1.70;;
32323;SDS011;25666;44.350;9.222;2022-09-23T00:47:14;2.78;;;1.48;;
32323;SDS011;25666;44.350;9.222;2022-09-23T00:50:36;2.55;;;1.52;;
32323;SDS011;25666;44.350;9.222;2022-09-23T00:52:45;2.30;;;1.57;;
32323;SDS011;25666;44.350;9.222;2022-09-23T00:55:15;4.18;;;2.30;;
32323;SDS011;25666;44.350;9.222;2022-09-23T00:57:45;2.72;;;1.40;;
32323;SDS011;25666;44.350;9.222;2022-09-23T01:00:11;7.90;;;1.73;;
32323;SDS011;25666;44.350;9.222;2022-09-23T01:02:37;3.03;;;1.30;;
32323;SDS011;25666;44.350;9.222;2022-09-23T01:05:04;7.63;;;1.52;;
32323;SDS011;25666;44.350;9.222;2022-09-23T01:07:31;1.88;;;1.52;;
32323;SDS011;25666;44.350;9.222;2022-09-23T01:09:58;3.67;;;1.70;;
32323;SDS011;25666;44.350;9.222;2022-09-23T01:12:31;2.72;;;1.83;;
32323;SDS011;25666;44.350;9.222;2022-09-23T01:20:41;1.92;;;1.30;;
32323;SDS011;25666;44.350;9.222;2022-09-23T01:23:23;2.13;;;1.92;;
32323;SDS011;25666;44.350;9.222;2022-09-23T01:35:17;7.28;;;1.85;;
32323;SDS011;25666;44.350;9.222;2022-09-23T01:37:28;4.72;;;1.60;;
32323;SDS011;25666;44.350;9.222;2022-09-23T01:39:58;2.65;;;1.77;;
32323;SDS011;25666;44.350;9.222;2022-09-23T01:42:38;3.47;;;1.60;;
32323;SDS011;25666;44.350;9.222;2022-09-23T01:45:18;2.30;;;1.60;;
32323;SDS011;25666;44.350;9.222;2022-09-23T01:47:53;3.13;;;1.45;;
32323;SDS011;25666;44.350;9.222;2022-09-23T01:50:31;4.25;;;1.98;;
32323;SDS011;25666;44.350;9.222;2022-09-23T01:53:23;2.13;;;1.60;;
32323;SDS011;25666;44.350;9.222;2022-09-23T01:55:58;2.10;;;1.67;;
32323;SDS011;25666;44.350;9.222;2022-09-23T02:01:06;2.15;;;1.50;;
32323;SDS011;25666;44.350;9.222;2022-09-23T02:03:40;1.45;;;1.33;;
32323;SDS011;25666;44.350;9.222;2022-09-23T02:06:13;6.00;;;2.00;;
32323;SDS011;25666;44.350;9.222;2022-09-23T02:08:55;2.28;;;1.60;;
32323;SDS011;25666;44.350;9.222;2022-09-23T02:11:25;6.35;;;1.55;;
32323;SDS011;25666;44.350;9.222;2022-09-23T02:16:36;4.03;;;1.50;;
32323;SDS011;25666;44.350;9.222;2022-09-23T02:21:45;1.63;;;1.42;;
32323;SDS011;25666;44.350;9.222;2022-09-23T02:24:20;2.20;;;1.60;;
32323;SDS011;25666;44.350;9.222;2022-09-23T02:26:55;2.15;;;1.70;;
32323;SDS011;25666;44.350;9.222;2022-09-23T02:34:45;2.13;;;1.50;;
32323;SDS011;25666;44.350;9.222;2022-09-23T02:40:35;4.00;;;2.17;;
32323;SDS011;25666;44.350;9.222;2022-09-23T02:43:10;1.65;;;1.40;;
32323;SDS011;25666;44.350;9.222;2022-09-23T02:45:44;3.78;;;1.42;;
32323;SDS011;25666;44.350;9.222;2022-09-23T02:48:12;2.60;;;1.67;;
32323;SDS011;25666;44.350;9.222;2022-09-23T02:50:41;1.40;;;1.30;;
32323;SDS011;25666;44.350;9.222;2022-09-23T02:53:07;4.25;;;1.50;;
32323;SDS011;25666;44.350;9.222;2022-09-23T02:55:32;3.20;;;1.70;;
32323;SDS011;25666;44.350;9.222;2022-09-23T02:57:58;3.25;;;1.77;;
32323;SDS011;25666;44.350;9.222;2022-09-23T03:00:35;2.92;;;1.98;;
32323;SDS011;25666;44.350;9.222;2022-09-23T03:06:07;1.60;;;1.50;;
32323;SDS011;25666;44.350;9.222;2022-09-23T03:11:29;4.15;;;1.35;;
32323;SDS011;25666;44.350;9.222;2022-09-23T03:14:58;2.15;;;1.38;;
32323;SDS011;25666;44.350;9.222;2022-09-23T03:17:13;1.25;;;1.15;;
32323;SDS011;25666;44.350;9.222;2022-09-23T03:19:51;3.05;;;1.77;;
32323;SDS011;25666;44.350;9.222;2022-09-23T03:24:50;2.58;;;1.30;;
32323;SDS011;25666;44.350;9.222;2022-09-23T03:27:20;2.55;;;1.40;;
32323;SDS011;25666;44.350;9.222;2022-09-23T03:29:50;4.80;;;1.83;;
32323;SDS011;25666;44.350;9.222;2022-09-23T03:32:19;3.75;;;1.52;;
32323;SDS011;25666;44.350;9.222;2022-09-23T03:34:48;2.22;;;1.45;;
32323;SDS011;25666;44.350;9.222;2022-09-23T03:37:18;4.97;;;1.50;;
32323;SDS011;25666;44.350;9.222;2022-09-23T03:42:34;2.63;;;1.52;;
32323;SDS011;25666;44.350;9.222;2022-09-23T03:45:03;4.90;;;1.70;;
32323;SDS011;25666;44.350;9.222;2022-09-23T03:47:33;2.55;;;1.30;;
32323;SDS011;25666;44.350;9.222;2022-09-23T03:49:59;3.08;;;1.58;;
32323;SDS011;25666;44.350;9.222;2022-09-23T03:52:25;6.82;;;1.65;;
32323;SDS011;25666;44.350;9.222;2022-09-23T03:54:52;2.42;;;1.55;;
32323;SDS011;25666;44.350;9.222;2022-09-23T03:57:18;1.17;;;1.13;;
32323;SDS011;25666;44.350;9.222;2022-09-23T03:59:48;2.60;;;1.63;;
32323;SDS011;25666;44.350;9.222;2022-09-23T04:02:17;3.85;;;1.50;;
32323;SDS011;25666;44.350;9.222;2022-09-23T04:04:43;1.88;;;1.50;;
32323;SDS011;25666;44.350;9.222;2022-09-23T04:07:09;1.77;;;1.40;;
32323;SDS011;25666;44.350;9.222;2022-09-23T04:09:36;4.80;;;2.35;;
32323;SDS011;25666;44.350;9.222;2022-09-23T04:12:02;2.17;;;1.77;;
32323;SDS011;25666;44.350;9.222;2022-09-23T04:14:28;4.53;;;1.40;;
32323;SDS011;25666;44.350;9.222;2022-09-23T04:16:54;2.05;;;1.38;;
32323;SDS011;25666;44.350;9.222;2022-09-23T04:19:20;1.85;;;1.40;;
32323;SDS011;25666;44.350;9.222;2022-09-23T04:21:45;3.50;;;1.70;;
32323;SDS011;25666;44.350;9.222;2022-09-23T04:24:11;2.35;;;1.40;;
32323;SDS011;25666;44.350;9.222;2022-09-23T04:26:38;2.58;;;1.60;;
32323;SDS011;25666;44.350;9.222;2022-09-23T04:29:04;3.78;;;1.40;;
32323;SDS011;25666;44.350;9.222;2022-09-23T04:31:32;1.83;;;1.30;;
32323;SDS011;25666;44.350;9.222;2022-09-23T04:33:58;3.95;;;1.38;;
32323;SDS011;25666;44.350;9.222;2022-09-23T04:36:24;5.28;;;1.50;;
32323;SDS011;25666;44.350;9.222;2022-09-23T04:38:50;3.05;;;1.70;;
32323;SDS011;25666;44.350;9.222;2022-09-23T04:41:16;2.22;;;1.38;;
32323;SDS011;25666;44.350;9.222;2022-09-23T04:43:42;4.68;;;2.20;;
32323;SDS011;25666;44.350;9.222;2022-09-23T04:46:09;2.83;;;1.70;;
32323;SDS011;25666;44.350;9.222;2022-09-23T04:48:36;10.27;;;2.00;;
32323;SDS011;25666;44.350;9.222;2022-09-23T04:51:03;2.33;;;1.80;;
32323;SDS011;25666;44.350;9.222;2022-09-23T04:53:40;8.57;;;2.03;;
32323;SDS011;25666;44.350;9.222;2022-09-23T04:56:13;4.05;;;1.90;;
32323;SDS011;25666;44.350;9.222;2022-09-23T04:58:40;2.28;;;1.92;;
32323;SDS011;25666;44.350;9.222;2022-09-23T05:01:11;5.18;;;1.80;;
32323;SDS011;25666;44.350;9.222;2022-09-23T05:03:39;4.15;;;1.52;;
32323;SDS011;25666;44.350;9.222;2022-09-23T05:06:05;6.50;;;1.67;;
32323;SDS011;25666;44.350;9.222;2022-09-23T05:08:32;2.35;;;1.50;;
32323;SDS011;25666;44.350;9.222;2022-09-23T05:10:59;6.00;;;2.05;;
32323;SDS011;25666;44.350;9.222;2022-09-23T05:13:25;3.47;;;2.78;;
32323;SDS011;25666;44.350;9.222;2022-09-23T05:16:01;1.77;;;1.67;;
32323;SDS011;25666;44.350;9.222;2022-09-23T05:18:32;2.78;;;1.70;;
32323;SDS011;25666;44.350;9.222;2022-09-23T05:20:58;3.78;;;2.00;;
32323;SDS011;25666;44.350;9.222;2022-09-23T05:23:24;2.58;;;1.80;;
32323;SDS011;25666;44.350;9.222;2022-09-23T05:25:58;7.15;;;3.28;;
32323;SDS011;25666;44.350;9.222;2022-09-23T05:28:26;7.82;;;2.22;;
32323;SDS011;25666;44.350;9.222;2022-09-23T05:31:03;10.20;;;2.50;;
32323;SDS011;25666;44.350;9.222;2022-09-23T05:33:31;15.93;;;2.45;;
32323;SDS011;25666;44.350;9.222;2022-09-23T05:35:57;7.03;;;2.42;;
32323;SDS011;25666;44.350;9.222;2022-09-23T05:38:23;5.00;;;2.15;;
32323;SDS011;25666;44.350;9.222;2022-09-23T05:40:55;12.93;;;3.35;;
32323;SDS011;25666;44.350;9.222;2022-09-23T05:43:22;8.40;;;2.70;;
32323;SDS011;25666;44.350;9.222;2022-09-23T05:45:49;13.25;;;2.50;;
32323;SDS011;25666;44.350;9.222;2022-09-23T05:48:14;6.30;;;2.92;;
32323;SDS011;25666;44.350;9.222;2022-09-23T05:50:47;9.60;;;2.67;;
32323;SDS011;25666;44.350;9.222;2022-09-23T05:53:14;13.90;;;3.67;;
32323;SDS011;25666;44.350;9.222;2022-09-23T05:55:40;10.73;;;3.78;;
32323;SDS011;25666;44.350;9.222;2022-09-23T05:58:05;13.95;;;3.00;;
32323;SDS011;25666;44.350;9.222;2022-09-23T06:00:31;7.68;;;3.60;;
32323;SDS011;25666;44.350;9.222;2022-09-23T06:02:56;5.15;;;2.40;;
32323;SDS011;25666;44.350;9.222;2022-09-23T06:05:21;6.35;;;2.65;;
32323;SDS011;25666;44.350;9.222;2022-09-23T06:07:47;8.65;;;2.25;;
32323;SDS011;25666;44.350;9.222;2022-09-23T06:10:12;7.30;;;2.22;;
32323;SDS011;25666;44.350;9.222;2022-09-23T06:12:38;3.58;;;2.10;;
32323;SDS011;25666;44.350;9.222;2022-09-23T06:15:03;5.93;;;1.90;;
32323;SDS011;25666;44.350;9.222;2022-09-23T06:17:30;4.65;;;2.65;;
32323;SDS011;25666;44.350;9.222;2022-09-23T06:19:55;9.43;;;2.50;;
32323;SDS011;25666;44.350;9.222;2022-09-23T06:22:23;6.20;;;2.08;;
32323;SDS011;25666;44.350;9.222;2022-09-23T06:24:48;6.45;;;2.75;;
32323;SDS011;25666;44.350;9.222;2022-09-23T06:27:14;6.90;;;1.83;;
32323;SDS011;25666;44.350;9.222;2022-09-23T06:29:40;5.72;;;2.00;;
32323;SDS011;25666;44.350;9.222;2022-09-23T06:32:05;7.55;;;1.98;;
32323;SDS011;25666;44.350;9.222;2022-09-23T06:34:31;4.45;;;1.95;;
32323;SDS011;25666;44.350;9.222;2022-09-23T06:36:56;8.23;;;2.05;;
32323;SDS011;25666;44.350;9.222;2022-09-23T06:39:22;4.93;;;1.95;;
32323;SDS011;25666;44.350;9.222;2022-09-23T06:41:47;7.22;;;2.45;;
32323;SDS011;25666;44.350;9.222;2022-09-23T06:44:13;4.40;;;2.70;;
32323;SDS011;25666;44.350;9.222;2022-09-23T06:46:39;3.55;;;2.08;;
32323;SDS011;25666;44.350;9.222;2022-09-23T06:49:04;8.63;;;3.20;;
32323;SDS011;25666;44.350;9.222;2022-09-23T06:51:30;7.07;;;2.90;;
32323;SDS011;25666;44.350;9.222;2022-09-23T06:53:56;9.18;;;4.20;;
32323;SDS011;25666;44.350;9.222;2022-09-23T06:56:21;7.85;;;2.97;;
32323;SDS011;25666;44.350;9.222;2022-09-23T06:58:47;4.25;;;3.17;;
32323;SDS011;25666;44.350;9.222;2022-09-23T07:01:15;21.65;;;5.20;;
32323;SDS011;25666;44.350;9.222;2022-09-23T07:03:42;24.30;;;3.75;;
32323;SDS011;25666;44.350;9.222;2022-09-23T07:06:09;20.52;;;5.18;;
32323;SDS011;25666;44.350;9.222;2022-09-23T07:08:34;20.67;;;7.13;;
32323;SDS011;25666;44.350;9.222;2022-09-23T07:11:02;12.73;;;4.93;;
32323;SDS011;25666;44.350;9.222;2022-09-23T07:13:29;25.23;;;7.93;;
32323;SDS011;25666;44.350;9.222;2022-09-23T07:15:57;22.05;;;6.88;;
32323;SDS011;25666;44.350;9.222;2022-09-23T07:18:25;20.20;;;6.57;;
32323;SDS011;25666;44.350;9.222;2022-09-23T07:20:52;20.95;;;7.10;;
32323;SDS011;25666;44.350;9.222;2022-09-23T07:23:22;22.55;;;6.35;;
32323;SDS011;25666;44.350;9.222;2022-09-23T07:25:48;19.35;;;5.88;;
32323;SDS011;25666;44.350;9.222;2022-09-23T07:28:16;12.43;;;5.57;;
32323;SDS011;25666;44.350;9.222;2022-09-23T07:30:42;21.20;;;5.97;;
32323;SDS011;25666;44.350;9.222;2022-09-23T07:33:08;16.67;;;4.85;;
32323;SDS011;25666;44.350;9.222;2022-09-23T07:35:37;29.98;;;6.97;;
32323;SDS011;25666;44.350;9.222;2022-09-23T07:38:05;15.40;;;5.50;;
32323;SDS011;25666;44.350;9.222;2022-09-23T07:40:31;11.65;;;4.75;;
32323;SDS011;25666;44.350;9.222;2022-09-23T07:42:57;8.55;;;4.65;;
32323;SDS011;25666;44.350;9.222;2022-09-23T07:45:23;7.03;;;3.33;;
32323;SDS011;25666;44.350;9.222;2022-09-23T07:47:51;9.13;;;4.30;;
32323;SDS011;25666;44.350;9.222;2022-09-23T07:50:17;9.35;;;3.75;;
32323;SDS011;25666;44.350;9.222;2022-09-23T07:52:43;8.15;;;3.00;;
32323;SDS011;25666;44.350;9.222;2022-09-23T07:55:09;8.20;;;2.88;;
32323;SDS011;25666;44.350;9.222;2022-09-23T07:57:34;7.25;;;3.20;;
32323;SDS011;25666;44.350;9.222;2022-09-23T08:00:00;5.95;;;3.17;;
32323;SDS011;25666;44.350;9.222;2022-09-23T08:02:26;8.55;;;3.10;;
32323;SDS011;25666;44.350;9.222;2022-09-23T08:04:52;5.55;;;2.50;;
32323;SDS011;25666;44.350;9.222;2022-09-23T08:07:19;23.88;;;4.13;;
32323;SDS011;25666;44.350;9.222;2022-09-23T08:09:45;18.92;;;3.20;;
32323;SDS011;25666;44.350;9.222;2022-09-23T08:12:12;10.38;;;2.40;;
32323;SDS011;25666;44.350;9.222;2022-09-23T08:14:42;3.75;;;2.17;;
32323;SDS011;25666;44.350;9.222;2022-09-23T08:17:08;4.90;;;2.33;;
32323;SDS011;25666;44.350;9.222;2022-09-23T08:19:35;3.95;;;2.10;;
32323;SDS011;25666;44.350;9.222;2022-09-23T08:22:00;4.13;;;1.70;;
32323;SDS011;25666;44.350;9.222;2022-09-23T08:24:26;8.95;;;2.67;;
32323;SDS011;25666;44.350;9.222;2022-09-23T08:26:52;5.65;;;1.98;;
32323;SDS011;25666;44.350;9.222;2022-09-23T08:29:22;7.43;;;1.73;;
32323;SDS011;25666;44.350;9.222;2022-09-23T08:31:48;5.75;;;1.90;;
32323;SDS011;25666;44.350;9.222;2022-09-23T08:34:18;2.35;;;1.58;;
32323;SDS011;25666;44.350;9.222;2022-09-23T08:36:44;1.92;;;1.48;;
32323;SDS011;25666;44.350;9.222;2022-09-23T08:39:14;6.93;;;1.55;;
32323;SDS011;25666;44.350;9.222;2022-09-23T08:46:51;6.47;;;1.80;;
32323;SDS011;25666;44.350;9.222;2022-09-23T08:49:22;7.82;;;2.05;;
32323;SDS011;25666;44.350;9.222;2022-09-23T08:51:54;5.75;;;1.58;;
32323;SDS011;25666;44.350;9.222;2022-09-23T08:54:24;2.58;;;1.75;;
32323;SDS011;25666;44.350;9.222;2022-09-23T08:56:54;10.52;;;3.78;;
32323;SDS011;25666;44.350;9.222;2022-09-23T08:59:27;3.92;;;2.45;;
32323;SDS011;25666;44.350;9.222;2022-09-23T09:02:08;2.95;;;2.25;;
32323;SDS011;25666;44.350;9.222;2022-09-23T09:04:40;10.52;;;2.00;;
32323;SDS011;25666;44.350;9.222;2022-09-23T09:12:15;3.33;;;2.40;;
32323;SDS011;25666;44.350;9.222;2022-09-23T09:15:02;3.17;;;1.38;;
32323;SDS011;25666;44.350;9.222;2022-09-23T09:20:22;2.25;;;1.40;;
32323;SDS011;25666;44.350;9.222;2022-09-23T09:22:57;6.95;;;1.75;;
32323;SDS011;25666;44.350;9.222;2022-09-23T09:25:35;3.40;;;1.30;;
32323;SDS011;25666;44.350;9.222;2022-09-23T09:28:14;2.67;;;1.63;;
32323;SDS011;25666;44.350;9.222;2022-09-23T09:30:45;4.30;;;1.77;;
32323;SDS011;25666;44.350;9.222;2022-09-23T09:33:15;3.92;;;1.70;;
32323;SDS011;25666;44.350;9.222;2022-09-23T09:36:02;1.88;;;1.73;;
32323;SDS011;25666;44.350;9.222;2022-09-23T09:38:43;5.30;;;1.70;;
32323;SDS011;25666;44.350;9.222;2022-09-23T09:41:15;1.73;;;1.50;;
32323;SDS011;25666;44.350;9.222;2022-09-23T09:43:43;5.22;;;1.75;;
32323;SDS011;25666;44.350;9.222;2022-09-23T09:49:26;3.35;;;1.98;;
32323;SDS011;25666;44.350;9.222;2022-09-23T09:52:31;5.82;;;1.75;;
32323;SDS011;25666;44.350;9.222;2022-09-23T09:54:54;2.85;;;1.80;;
32323;SDS011;25666;44.350;9.222;2022-09-23T09:57:43;3.13;;;1.80;;
32323;SDS011;25666;44.350;9.222;2022-09-23T10:00:16;6.45;;;1.80;;
32323;SDS011;25666;44.350;9.222;2022-09-23T10:02:42;7.80;;;2.40;;
32323;SDS011;25666;44.350;9.222;2022-09-23T10:05:21;6.63;;;2.38;;
32323;SDS011;25666;44.350;9.222;2022-09-23T10:07:52;4.60;;;2.50;;
32323;SDS011;25666;44.350;9.222;2022-09-23T10:10:20;3.63;;;1.70;;
32323;SDS011;25666;44.350;9.222;2022-09-23T10:12:49;6.38;;;1.88;;
32323;SDS011;25666;44.350;9.222;2022-09-23T10:15:31;2.85;;;1.80;;
32323;SDS011;25666;44.350;9.222;2022-09-23T10:18:15;2.80;;;1.85;;
32323;SDS011;25666;44.350;9.222;2022-09-23T10:20:43;2.85;;;1.50;;
32323;SDS011;25666;44.350;9.222;2022-09-23T10:23:15;4.50;;;1.77;;
32323;SDS011;25666;44.350;9.222;2022-09-23T10:25:59;6.38;;;1.90;;
32323;SDS011;25666;44.350;9.222;2022-09-23T10:28:40;2.38;;;1.80;;
32323;SDS011;25666;44.350;9.222;2022-09-23T10:31:12;3.13;;;1.63;;
32323;SDS011;25666;44.350;9.222;2022-09-23T10:33:50;2.72;;;1.75;;
32323;SDS011;25666;44.350;9.222;2022-09-23T10:36:21;2.67;;;1.42;;
32323;SDS011;25666;44.350;9.222;2022-09-23T10:39:00;10.43;;;2.38;;
32323;SDS011;25666;44.350;9.222;2022-09-23T10:42:10;6.85;;;2.08;;
32323;SDS011;25666;44.350;9.222;2022-09-23T10:45:17;6.60;;;1.88;;
32323;SDS011;25666;44.350;9.222;2022-09-23T10:50:46;3.28;;;1.52;;
32323;SDS011;25666;44.350;9.222;2022-09-23T10:53:18;1.58;;;1.38;;
32323;SDS011;25666;44.350;9.222;2022-09-23T10:56:14;2.25;;;1.42;;
32323;SDS011;25666;44.350;9.222;2022-09-23T11:06:58;3.83;;;1.50;;
32323;SDS011;25666;44.350;9.222;2022-09-23T11:10:02;1.52;;;1.10;;
32323;SDS011;25666;44.350;9.222;2022-09-23T11:12:42;10.18;;;1.58;;
32323;SDS011;25666;44.350;9.222;2022-09-23T11:18:23;4.07;;;1.42;;
32323;SDS011;25666;44.350;9.222;2022-09-23T11:26:27;5.93;;;1.42;;
32323;SDS011;25666;44.350;9.222;2022-09-23T11:37:13;5.22;;;1.20;;
32323;SDS011;25666;44.350;9.222;2022-09-23T11:39:44;3.00;;;1.42;;
32323;SDS011;25666;44.350;9.222;2022-09-23T11:42:30;2.05;;;1.10;;
32323;SDS011;25666;44.350;9.222;2022-09-23T11:45:06;7.38;;;1.80;;
32323;SDS011;25666;44.350;9.222;2022-09-23T11:47:43;5.13;;;1.40;;
32323;SDS011;25666;44.350;9.222;2022-09-23T11:52:52;2.63;;;1.50;;
32323;SDS011;25666;44.350;9.222;2022-09-23T11:55:28;3.92;;;1.50;;
32323;SDS011;25666;44.350;9.222;2022-09-23T11:57:59;4.95;;;1.60;;
32323;SDS011;25666;44.350;9.222;2022-09-23T12:00:31;3.13;;;1.90;;
32323;SDS011;25666;44.350;9.222;2022-09-23T12:03:04;7.30;;;1.38;;
32323;SDS011;25666;44.350;9.222;2022-09-23T12:06:02;1.77;;;1.45;;
32323;SDS011;25666;44.350;9.222;2022-09-23T12:08:37;2.00;;;1.30;;
32323;SDS011;25666;44.350;9.222;2022-09-23T12:21:52;5.13;;;1.70;;
32323;SDS011;25666;44.350;9.222;2022-09-23T12:24:55;1.85;;;1.40;;
32323;SDS011;25666;44.350;9.222;2022-09-23T12:30:19;3.10;;;1.33;;
32323;SDS011;25666;44.350;9.222;2022-09-23T12:32:47;2.80;;;1.23;;
32323;SDS011;25666;44.350;9.222;2022-09-23T12:35:20;2.47;;;1.30;;
32323;SDS011;25666;44.350;9.222;2022-09-23T12:37:48;6.18;;;2.55;;
32323;SDS011;25666;44.350;9.222;2022-09-23T12:40:30;3.58;;;1.52;;
32323;SDS011;25666;44.350;9.222;2022-09-23T12:43:00;4.07;;;1.30;;
32323;SDS011;25666;44.350;9.222;2022-09-23T12:50:49;2.88;;;1.27;;
32323;SDS011;25666;44.350;9.222;2022-09-23T12:55:59;3.33;;;1.40;;
32323;SDS011;25666;44.350;9.222;2022-09-23T13:01:15;2.92;;;1.20;;
32323;SDS011;25666;44.350;9.222;2022-09-23T13:07:04;4.38;;;1.50;;
32323;SDS011;25666;44.350;9.222;2022-09-23T13:09:36;3.13;;;1.50;;
32323;SDS011;25666;44.350;9.222;2022-09-23T13:12:06;4.95;;;2.05;;
32323;SDS011;25666;44.350;9.222;2022-09-23T13:14:41;2.85;;;1.50;;
32323;SDS011;25666;44.350;9.222;2022-09-23T13:19:59;3.58;;;1.55;;
32323;SDS011;25666;44.350;9.222;2022-09-23T13:22:41;6.95;;;1.60;;
32323;SDS011;25666;44.350;9.222;2022-09-23T13:25:28;1.98;;;1.33;;
32323;SDS011;25666;44.350;9.222;2022-09-23T13:27:59;3.03;;;2.17;;
32323;SDS011;25666;44.350;9.222;2022-09-23T13:30:26;1.75;;;1.63;;
32323;SDS011;25666;44.350;9.222;2022-09-23T13:32:58;3.83;;;1.23;;
32323;SDS011;25666;44.350;9.222;2022-09-23T13:35:49;2.28;;;1.42;;
32323;SDS011;25666;44.350;9.222;2022-09-23T13:38:25;1.73;;;1.30;;
32323;SDS011;25666;44.350;9.222;2022-09-23T13:40:55;5.53;;;1.30;;
32323;SDS011;25666;44.350;9.222;2022-09-23T13:43:35;4.43;;;1.65;;
32323;SDS011;25666;44.350;9.222;2022-09-23T13:46:07;3.42;;;2.33;;
32323;SDS011;25666;44.350;9.222;2022-09-23T13:48:38;3.80;;;1.10;;
32323;SDS011;25666;44.350;9.222;2022-09-23T13:51:07;4.25;;;1.77;;
32323;SDS011;25666;44.350;9.222;2022-09-23T13:53:34;2.53;;;2.05;;
32323;SDS011;25666;44.350;9.222;2022-09-23T13:56:10;5.32;;;1.80;;
32323;SDS011;25666;44.350;9.222;2022-09-23T13:58:38;6.97;;;2.47;;
32323;SDS011;25666;44.350;9.222;2022-09-23T14:01:08;6.15;;;1.70;;
32323;SDS011;25666;44.350;9.222;2022-09-23T14:03:44;2.95;;;1.35;;
32323;SDS011;25666;44.350;9.222;2022-09-23T14:06:11;10.30;;;2.20;;
32323;SDS011;25666;44.350;9.222;2022-09-23T14:08:48;6.03;;;1.75;;
32323;SDS011;25666;44.350;9.222;2022-09-23T14:14:13;5.05;;;1.52;;
32323;SDS011;25666;44.350;9.222;2022-09-23T14:16:39;4.55;;;1.63;;
32323;SDS011;25666;44.350;9.222;2022-09-23T14:19:06;4.07;;;1.40;;
32323;SDS011;25666;44.350;9.222;2022-09-23T14:21:40;3.17;;;1.73;;
32323;SDS011;25666;44.350;9.222;2022-09-23T14:24:52;1.50;;;1.25;;
32323;SDS011;25666;44.350;9.222;2022-09-23T14:27:03;2.30;;;1.40;;
32323;SDS011;25666;44.350;9.222;2022-09-23T14:29:39;2.60;;;1.60;;
32323;SDS011;25666;44.350;9.222;2022-09-23T14:32:11;3.38;;;1.73;;
32323;SDS011;25666;44.350;9.222;2022-09-23T14:40:04;4.68;;;1.40;;
32323;SDS011;25666;44.350;9.222;2022-09-23T14:45:05;2.10;;;1.23;;
32323;SDS011;25666;44.350;9.222;2022-09-23T14:47:36;2.08;;;1.40;;
32323;SDS011;25666;44.350;9.222;2022-09-23T14:50:01;4.90;;;1.98;;
32323;SDS011;25666;44.350;9.222;2022-09-23T14:52:48;12.63;;;3.00;;
32323;SDS011;25666;44.350;9.222;2022-09-23T14:55:15;3.60;;;2.08;;
32323;SDS011;25666;44.350;9.222;2022-09-23T14:57:42;4.90;;;1.30;;
32323;SDS011;25666;44.350;9.222;2022-09-23T15:00:16;8.50;;;1.63;;
32323;SDS011;25666;44.350;9.222;2022-09-23T15:02:44;5.47;;;1.55;;
32323;SDS011;25666;44.350;9.222;2022-09-23T15:05:44;3.07;;;1.43;;
32323;SDS011;25666;44.350;9.222;2022-09-23T15:08:19;5.97;;;1.48;;
32323;SDS011;25666;44.350;9.222;2022-09-23T15:10:47;2.72;;;2.10;;
32323;SDS011;25666;44.350;9.222;2022-09-23T15:13:17;3.33;;;1.40;;
32323;SDS011;25666;44.350;9.222;2022-09-23T15:15:43;1.77;;;1.40;;
32323;SDS011;25666;44.350;9.222;2022-09-23T15:20:55;5.20;;;1.50;;
32323;SDS011;25666;44.350;9.222;2022-09-23T15:26:12;4.63;;;1.70;;
32323;SDS011;25666;44.350;9.222;2022-09-23T15:28:39;4.43;;;1.80;;
32323;SDS011;25666;44.350;9.222;2022-09-23T15:31:09;3.50;;;1.50;;
32323;SDS011;25666;44.350;9.222;2022-09-23T15:33:35;2.40;;;1.42;;
32323;SDS011;25666;44.350;9.222;2022-09-23T15:36:01;5.70;;;1.83;;
32323;SDS011;25666;44.350;9.222;2022-09-23T15:38:27;1.85;;;1.20;;
32323;SDS011;25666;44.350;9.222;2022-09-23T15:40:53;1.30;;;1.15;;
32323;SDS011;25666;44.350;9.222;2022-09-23T15:43:19;6.50;;;1.70;;
32323;SDS011;25666;44.350;9.222;2022-09-23T15:45:51;5.22;;;2.00;;
32323;SDS011;25666;44.350;9.222;2022-09-23T15:48:23;2.17;;;1.60;;
32323;SDS011;25666;44.350;9.222;2022-09-23T15:50:51;3.90;;;1.90;;
32323;SDS011;25666;44.350;9.222;2022-09-23T15:53:27;2.75;;;1.70;;
32323;SDS011;25666;44.350;9.222;2022-09-23T15:55:54;3.97;;;1.70;;
32323;SDS011;25666;44.350;9.222;2022-09-23T15:58:20;6.93;;;1.40;;
32323;SDS011;25666;44.350;9.222;2022-09-23T16:00:49;2.72;;;1.25;;
32323;SDS011;25666;44.350;9.222;2022-09-23T16:03:17;7.70;;;1.52;;
32323;SDS011;25666;44.350;9.222;2022-09-23T16:05:49;9.13;;;1.75;;
32323;SDS011;25666;44.350;9.222;2022-09-23T16:08:15;4.65;;;1.35;;
32323;SDS011;25666;44.350;9.222;2022-09-23T16:10:47;2.05;;;1.77;;
32323;SDS011;25666;44.350;9.222;2022-09-23T16:13:13;5.32;;;2.17;;
32323;SDS011;25666;44.350;9.222;2022-09-23T16:15:39;5.32;;;1.67;;
32323;SDS011;25666;44.350;9.222;2022-09-23T16:18:05;6.28;;;2.05;;
32323;SDS011;25666;44.350;9.222;2022-09-23T16:20:33;7.45;;;2.20;;
32323;SDS011;25666;44.350;9.222;2022-09-23T16:23:03;3.22;;;1.92;;
32323;SDS011;25666;44.350;9.222;2022-09-23T16:25:31;4.68;;;2.33;;
32323;SDS011;25666;44.350;9.222;2022-09-23T16:28:00;5.97;;;1.63;;
32323;SDS011;25666;44.350;9.222;2022-09-23T16:30:26;2.05;;;1.30;;
32323;SDS011;25666;44.350;9.222;2022-09-23T16:32:53;4.78;;;1.90;;
32323;SDS011;25666;44.350;9.222;2022-09-23T16:35:20;4.63;;;2.03;;
32323;SDS011;25666;44.350;9.222;2022-09-23T16:37:47;5.05;;;1.73;;
32323;SDS011;25666;44.350;9.222;2022-09-23T16:40:17;3.97;;;1.83;;
32323;SDS011;25666;44.350;9.222;2022-09-23T16:42:47;2.65;;;1.80;;
32323;SDS011;25666;44.350;9.222;2022-09-23T16:45:14;2.17;;;1.98;;
32323;SDS011;25666;44.350;9.222;2022-09-23T16:47:42;5.57;;;1.95;;
32323;SDS011;25666;44.350;9.222;2022-09-23T16:50:09;4.78;;;1.83;;
32323;SDS011;25666;44.350;9.222;2022-09-23T16:52:36;2.78;;;2.00;;
32323;SDS011;25666;44.350;9.222;2022-09-23T16:55:02;4.18;;;2.10;;
32323;SDS011;25666;44.350;9.222;2022-09-23T16:57:28;6.13;;;2.10;;
32323;SDS011;25666;44.350;9.222;2022-09-23T16:59:54;7.00;;;2.20;;
32323;SDS011;25666;44.350;9.222;2022-09-23T17:02:38;7.78;;;2.85;;
32323;SDS011;25666;44.350;9.222;2022-09-23T17:05:22;12.85;;;4.00;;
32323;SDS011;25666;44.350;9.222;2022-09-23T17:07:48;8.32;;;2.03;;
32323;SDS011;25666;44.350;9.222;2022-09-23T17:10:13;3.95;;;1.95;;
32323;SDS011;25666;44.350;9.222;2022-09-23T17:12:41;9.32;;;2.67;;
32323;SDS011;25666;44.350;9.222;2022-09-23T17:15:06;4.38;;;2.53;;
32323;SDS011;25666;44.350;9.222;2022-09-23T17:17:33;4.82;;;2.25;;
32323;SDS011;25666;44.350;9.222;2022-09-23T17:20:01;9.57;;;3.15;;
32323;SDS011;25666;44.350;9.222;2022-09-23T17:22:28;7.68;;;2.58;;